Time;durP1;ratioP1;P1;durP2;ratioP2;P2;SDS_P1;SDS_P2;PMS_P1;PMS_P2;Temp;Humidity;BMP_temperature;BMP_pressure;BME280_temperature;BME280_humidity;BME280_pressure;Samples;Min_cycle;Max_cycle;Signal;HPM_P1;HPM_P2
2021/12/29 00:02:36;;;;;;;56.80;28.90;;;;;;;-0.81;66.08;97863.94;219220;1293;139559;-59
2021/12/29 00:07:40;;;;;;;58.30;29.00;;;;;;;-0.81;65.87;97863.24;218661;1293;138891;-60
2021/12/29 00:12:47;;;;;;;58.40;29.40;;;;;;;-0.82;65.87;97861.72;218756;1291;139142;-69
2021/12/29 00:17:50;;;;;;;58.10;29.50;;;;;;;-0.85;65.91;97859.03;219340;1293;139758;-61
2021/12/29 00:23:02;;;;;;;51.70;27.50;;;;;;;-0.87;65.86;97858.60;219709;1293;139184;-57
2021/12/29 00:28:05;;;;;;;56.90;29.30;;;;;;;-0.88;65.94;97853.06;219510;1292;139316;-56
2021/12/29 00:33:11;;;;;;;60.00;28.40;;;;;;;-0.90;65.81;97846.70;219100;1293;138692;-63
2021/12/29 00:38:20;;;;;;;62.00;29.60;;;;;;;-0.89;66.04;97847.52;218914;1293;141495;-58
2021/12/29 00:43:35;;;;;;;54.10;27.60;;;;;;;-0.84;65.91;97868.56;218698;1293;139974;-56
2021/12/29 00:49:05;;;;;;;54.10;28.30;;;;;;;-0.76;65.96;97873.67;218599;1295;140709;-59
2021/12/29 00:54:08;;;;;;;56.20;28.40;;;;;;;-0.71;66.01;97871.79;219649;1293;139429;-59
2021/12/29 00:59:11;;;;;;;59.00;29.10;;;;;;;-0.67;65.91;97865.20;218952;1293;139111;-57
2021/12/29 01:04:14;;;;;;;54.20;27.90;;;;;;;-0.63;66.13;97858.77;219436;1293;141829;-62
2021/12/29 01:09:17;;;;;;;60.30;29.90;;;;;;;-0.62;65.95;97852.99;219171;1293;142713;-59
2021/12/29 01:14:22;;;;;;;60.10;30.50;;;;;;;-0.62;65.95;97857.86;219519;1290;140681;-59
2021/12/29 01:19:29;;;;;;;57.00;29.00;;;;;;;-0.62;65.91;97852.48;218945;1293;138798;-59
2021/12/29 01:24:32;;;;;;;61.90;30.00;;;;;;;-0.63;65.81;97842.42;219034;1293;139088;-59
2021/12/29 01:29:35;;;;;;;58.30;30.90;;;;;;;-0.68;65.80;97839.13;219049;1292;139044;-62
2021/12/29 01:34:38;;;;;;;58.40;29.20;;;;;;;-0.74;65.69;97840.71;218887;1290;139182;-62
2021/12/29 01:39:41;;;;;;;56.40;28.40;;;;;;;-0.78;65.84;97839.98;218674;1293;141167;-63
2021/12/29 01:44:44;;;;;;;58.50;30.10;;;;;;;-0.82;65.98;97845.69;218611;1294;139472;-59
2021/12/29 01:49:47;;;;;;;60.50;29.90;;;;;;;-0.86;65.92;97854.55;218743;1293;139290;-59
2021/12/29 01:54:50;;;;;;;56.90;30.30;;;;;;;-0.89;65.98;97852.05;219166;1293;139000;-61
2021/12/29 01:59:53;;;;;;;55.50;29.00;;;;;;;-0.92;66.04;97857.02;219656;1290;139038;-67
2021/12/29 02:04:56;;;;;;;57.00;29.30;;;;;;;-0.95;66.04;97862.50;219647;1289;139958;-59
2021/12/29 02:09:59;;;;;;;56.40;28.30;;;;;;;-0.97;66.07;97851.79;218551;1290;138934;-58
2021/12/29 02:15:05;;;;;;;53.60;27.60;;;;;;;-0.98;65.97;97852.00;219555;1293;139733;-60
2021/12/29 02:20:12;;;;;;;53.90;28.70;;;;;;;-0.98;65.96;97854.95;220438;1291;139756;-57
2021/12/29 02:30:25;;;;;;;53.70;26.50;;;;;;;-0.98;66.12;97858.46;219838;1293;140006;-60
2021/12/29 02:35:28;;;;;;;49.30;26.70;;;;;;;-1.01;65.99;97858.20;220240;1290;138340;-61
2021/12/29 02:40:32;;;;;;;46.00;25.50;;;;;;;-1.02;66.01;97856.66;218623;1293;139752;-59
2021/12/29 02:45:35;;;;;;;54.40;27.50;;;;;;;-1.04;65.94;97850.99;219004;1293;139557;-58
2021/12/29 02:50:38;;;;;;;49.10;26.90;;;;;;;-1.09;65.90;97848.54;218545;1293;139447;-61
2021/12/29 02:55:41;;;;;;;51.80;27.30;;;;;;;-1.11;66.21;97848.80;218434;1293;139826;-56
2021/12/29 03:00:44;;;;;;;49.00;27.20;;;;;;;-1.09;66.31;97861.09;218978;1293;150899;-63
2021/12/29 03:05:48;;;;;;;51.10;28.10;;;;;;;-1.08;66.20;97857.94;219429;1293;139246;-58
2021/12/29 03:10:52;;;;;;;51.40;28.40;;;;;;;-1.07;66.36;97859.80;218983;1293;138866;-62
2021/12/29 03:15:56;;;;;;;56.00;28.60;;;;;;;-1.05;66.38;97856.27;219925;1291;139045;-59
2021/12/29 03:21:00;;;;;;;53.90;27.50;;;;;;;-1.03;66.33;97855.31;218890;1293;139143;-58
2021/12/29 03:26:03;;;;;;;50.90;26.80;;;;;;;-1.02;66.37;97854.40;218717;1294;139330;-58
2021/12/29 03:31:14;;;;;;;48.40;26.70;;;;;;;-1.01;66.49;97856.63;219138;1293;139850;-59
2021/12/29 03:36:18;;;;;;;52.00;26.80;;;;;;;-0.98;66.32;97855.31;219145;1290;139703;-61
2021/12/29 03:41:24;;;;;;;51.70;26.10;;;;;;;-0.95;66.39;97857.48;219589;1293;139412;-64
2021/12/29 03:46:27;;;;;;;49.30;25.90;;;;;;;-0.90;66.22;97861.83;219846;1290;139986;-60
2021/12/29 03:51:30;;;;;;;48.20;26.50;;;;;;;-0.86;66.31;97867.06;219230;1293;140207;-59
2021/12/29 03:56:33;;;;;;;45.50;25.80;;;;;;;-0.83;66.22;97872.19;219133;1293;139755;-61
2021/12/29 04:01:37;;;;;;;47.80;25.70;;;;;;;-0.81;66.22;97875.79;218922;1293;139086;-61
2021/12/29 04:06:40;;;;;;;48.60;26.80;;;;;;;-0.78;66.48;97877.06;219164;1290;139441;-57
2021/12/29 04:11:43;;;;;;;45.60;24.90;;;;;;;-0.73;66.45;97880.55;218819;1293;139081;-61
2021/12/29 04:16:47;;;;;;;46.40;25.30;;;;;;;-0.69;66.43;97880.73;218822;1292;142682;-61
2021/12/29 04:21:50;;;;;;;44.70;24.80;;;;;;;-0.66;66.42;97885.88;218808;1293;140387;-57
2021/12/29 04:26:53;;;;;;;44.80;24.10;;;;;;;-0.67;66.32;97889.25;219539;1292;140605;-58
2021/12/29 04:31:56;;;;;;;44.00;24.70;;;;;;;-0.69;66.35;97897.84;219657;1290;139213;-58
2021/12/29 04:36:59;;;;;;;43.50;23.90;;;;;;;-0.71;66.52;97907.80;219437;1291;139170;-63
2021/12/29 04:42:03;;;;;;;416.40;245.60;;;;;;;-0.66;66.71;97906.09;219213;1293;161222;-62
2021/12/29 04:47:07;;;;;;;57.20;31.00;;;;;;;-0.49;67.18;97908.08;219131;1293;139571;-63
2021/12/29 04:52:13;;;;;;;43.70;24.80;;;;;;;-0.39;66.75;97917.48;219634;1293;138992;-60
2021/12/29 04:57:21;;;;;;;46.40;24.70;;;;;;;-0.37;66.45;97910.98;219852;1290;138935;-59
2021/12/29 05:02:24;;;;;;;83.10;44.50;;;;;;;-0.35;66.75;97906.70;219215;1290;138980;-60
2021/12/29 05:12:48;;;;;;;41.90;23.40;;;;;;;-0.13;66.37;97905.20;218324;1293;139138;-59
2021/12/29 05:17:51;;;;;;;44.20;23.30;;;;;;;-0.13;66.39;97911.64;219229;1293;139676;-64
2021/12/29 05:22:56;;;;;;;70.50;39.40;;;;;;;-0.05;66.65;97910.83;219090;1293;140648;-61
2021/12/29 05:28:00;;;;;;;51.60;27.00;;;;;;;0.06;66.43;97911.81;218684;1292;139353;-59
2021/12/29 05:33:04;;;;;;;43.30;24.30;;;;;;;0.00;65.99;97918.66;219197;1293;140397;-59
2021/12/29 05:38:07;;;;;;;42.10;23.30;;;;;;;-0.07;66.01;97926.95;219310;1293;138848;-64
2021/12/29 05:43:10;;;;;;;38.90;22.10;;;;;;;-0.12;66.08;97936.02;219697;1293;139043;-62
2021/12/29 05:48:13;;;;;;;40.30;22.30;;;;;;;-0.17;66.12;97942.47;219708;1292;139274;-58
2021/12/29 05:53:16;;;;;;;40.70;22.80;;;;;;;-0.23;65.96;97947.23;220133;1293;140168;-61
2021/12/29 05:58:19;;;;;;;43.60;23.80;;;;;;;-0.30;66.03;97942.25;218824;1293;139682;-59
2021/12/29 06:03:23;;;;;;;44.30;23.20;;;;;;;-0.33;66.23;97950.02;219230;1291;139296;-59
2021/12/29 06:08:26;;;;;;;44.50;24.10;;;;;;;-0.34;66.20;97956.34;218901;1294;139008;-58
2021/12/29 06:13:30;;;;;;;43.20;23.40;;;;;;;-0.36;66.18;97963.52;218746;1293;139106;-59
2021/12/29 06:18:33;;;;;;;46.30;24.30;;;;;;;-0.33;66.35;97962.04;218991;1293;139156;-59
2021/12/29 06:23:36;;;;;;;44.00;24.20;;;;;;;-0.33;66.33;97966.58;218971;1293;139982;-58
2021/12/29 06:28:39;;;;;;;42.30;23.50;;;;;;;-0.34;66.32;97972.88;218836;1293;139510;-59
2021/12/29 06:33:42;;;;;;;43.90;22.80;;;;;;;-0.30;66.39;97982.83;219431;1293;139734;-57
2021/12/29 06:38:45;;;;;;;46.00;23.90;;;;;;;-0.20;66.48;97987.55;219249;1293;139302;-60
2021/12/29 06:43:48;;;;;;;41.30;21.90;;;;;;;-0.12;66.39;97996.66;218692;1293;139144;-57
2021/12/29 06:48:51;;;;;;;40.00;22.50;;;;;;;-0.10;66.46;98003.57;218929;1293;139206;-55
2021/12/29 06:53:55;;;;;;;39.50;22.30;;;;;;;-0.03;66.47;98014.98;218725;1294;141349;-61
2021/12/29 06:58:58;;;;;;;39.90;22.30;;;;;;;-0.01;66.35;98020.33;219056;1293;138563;-56
2021/12/29 07:04:01;;;;;;;37.40;21.20;;;;;;;-0.00;66.35;98020.65;219662;1293;139803;-62
2021/12/29 07:09:05;;;;;;;39.30;22.60;;;;;;;0.03;66.36;98020.72;219042;1294;139136;-58
2021/12/29 07:14:09;;;;;;;43.10;22.50;;;;;;;0.05;66.45;98027.64;219219;1292;139099;-59
2021/12/29 07:19:13;;;;;;;41.30;23.10;;;;;;;0.05;66.33;98026.04;219154;1293;139606;-59
2021/12/29 07:24:17;;;;;;;37.40;21.80;;;;;;;0.05;66.17;98022.24;219537;1293;139509;-63
2021/12/29 07:29:20;;;;;;;45.90;23.30;;;;;;;0.06;66.44;98018.70;219016;1293;139390;-56
2021/12/29 07:34:24;;;;;;;37.50;21.90;;;;;;;0.09;66.36;98022.95;218994;1292;231825;-54
2021/12/29 07:39:27;;;;;;;37.90;22.50;;;;;;;0.05;66.27;98029.20;218976;1293;138749;-61
2021/12/29 07:44:30;;;;;;;41.00;23.10;;;;;;;0.04;66.37;98040.92;218338;1296;139615;-61
2021/12/29 07:49:34;;;;;;;39.40;22.70;;;;;;;0.02;66.27;98045.15;218309;1294;140363;-59
2021/12/29 07:54:37;;;;;;;44.90;23.50;;;;;;;0.02;66.40;98044.83;219142;1293;138734;-59
2021/12/29 07:59:40;;;;;;;38.70;23.10;;;;;;;0.09;66.43;98052.92;218768;1293;139149;-62
2021/12/29 08:04:44;;;;;;;45.40;25.00;;;;;;;0.20;66.52;98050.43;219107;1293;139703;-64
2021/12/29 08:09:48;;;;;;;359.00;200.20;;;;;;;0.27;66.32;98050.55;218144;1294;138692;-58
2021/12/29 08:14:51;;;;;;;51.30;29.10;;;;;;;0.38;66.62;98056.58;218534;1293;139462;-62
2021/12/29 08:19:57;;;;;;;48.40;26.70;;;;;;;0.43;66.37;98059.20;218628;1294;139365;-58
2021/12/29 08:25:00;;;;;;;46.30;27.40;;;;;;;0.44;66.37;98058.81;218614;1294;139148;-63
2021/12/29 08:30:05;;;;;;;49.80;28.30;;;;;;;0.42;66.33;98062.00;219156;1293;138543;-61
2021/12/29 08:35:12;;;;;;;48.70;25.70;;;;;;;0.41;66.30;98061.88;218496;1293;139143;-58
2021/12/29 08:40:16;;;;;;;51.60;28.80;;;;;;;0.37;66.32;98064.64;219165;1293;139047;-64
2021/12/29 08:45:21;;;;;;;60.80;31.90;;;;;;;0.36;66.47;98066.40;218776;1294;140085;-60
2021/12/29 08:50:30;;;;;;;60.70;32.60;;;;;;;0.39;66.54;98071.23;218257;1294;138643;-57
2021/12/29 08:55:35;;;;;;;59.70;32.30;;;;;;;0.42;66.54;98071.45;218663;1293;138903;-56
2021/12/29 09:00:38;;;;;;;53.40;29.20;;;;;;;0.42;66.52;98073.69;219373;1290;139045;-64
2021/12/29 09:05:42;;;;;;;61.10;32.70;;;;;;;0.46;66.62;98076.50;218855;1293;138975;-67
2021/12/29 09:10:45;;;;;;;57.60;31.40;;;;;;;0.47;66.52;98075.77;218743;1293;139014;-56
2021/12/29 09:15:49;;;;;;;58.50;30.20;;;;;;;0.50;66.72;98074.81;218275;1293;141248;-65
2021/12/29 09:20:53;;;;;;;48.30;27.90;;;;;;;0.57;66.78;98069.48;218916;1292;140209;-62
2021/12/29 09:25:56;;;;;;;47.10;28.40;;;;;;;0.69;66.90;98070.45;218655;1294;139504;-62
2021/12/29 09:31:03;;;;;;;52.80;30.60;;;;;;;0.81;66.94;98074.86;218373;1293;139473;-62
2021/12/29 09:36:09;;;;;;;57.20;30.40;;;;;;;0.86;66.83;98071.17;218915;1294;138879;-58
2021/12/29 09:41:16;;;;;;;56.40;32.20;;;;;;;0.90;66.93;98073.63;218938;1292;139460;-66
2021/12/29 09:46:19;;;;;;;61.10;33.80;;;;;;;0.97;66.92;98075.14;219177;1293;139795;-58
2021/12/29 09:51:22;;;;;;;56.90;32.20;;;;;;;1.01;66.86;98078.30;218976;1293;139398;-58
2021/12/29 09:56:27;;;;;;;415.70;222.20;;;;;;;1.05;66.89;98079.18;218490;1293;138784;-58
2021/12/29 10:01:30;;;;;;;72.10;38.20;;;;;;;1.17;67.16;98079.40;218276;1294;139330;-61
2021/12/29 10:06:33;;;;;;;62.60;34.90;;;;;;;1.19;66.96;98081.60;218645;1294;139132;-58
2021/12/29 10:11:37;;;;;;;59.10;33.40;;;;;;;1.17;66.93;98081.11;219204;1294;139524;-59
2021/12/29 10:16:41;;;;;;;57.20;32.40;;;;;;;1.18;66.88;98082.84;218786;1293;138944;-60
2021/12/29 10:21:51;;;;;;;64.30;32.70;;;;;;;1.14;66.88;98083.86;219208;1293;138903;-65
2021/12/29 10:26:57;;;;;;;58.90;33.10;;;;;;;1.08;66.88;98084.83;218534;1293;138670;-63
2021/12/29 10:32:02;;;;;;;59.80;33.60;;;;;;;1.05;66.80;98086.69;218478;1293;139544;-59
2021/12/29 10:37:08;;;;;;;60.70;32.40;;;;;;;1.08;67.12;98083.23;218899;1293;139072;-62
2021/12/29 10:42:12;;;;;;;57.10;32.90;;;;;;;1.20;67.40;98084.89;218816;1293;139256;-63
2021/12/29 10:47:21;;;;;;;58.80;33.20;;;;;;;1.30;67.45;98082.89;218725;1294;140427;-59
2021/12/29 10:52:39;;;;;;;62.90;36.00;;;;;;;1.38;67.40;98087.14;218929;1293;140242;-64
2021/12/29 10:57:43;;;;;;;60.60;34.20;;;;;;;1.46;67.37;98084.86;218974;1293;138814;-60
2021/12/29 11:03:11;;;;;;;71.00;36.80;;;;;;;1.51;67.34;98083.29;219074;1293;139044;-63
2021/12/29 11:08:16;;;;;;;71.10;36.10;;;;;;;1.58;67.55;98086.64;218709;1293;139753;-60
2021/12/29 11:13:27;;;;;;;68.80;35.60;;;;;;;1.65;67.64;98082.88;218634;1293;139969;-63
2021/12/29 11:18:51;;;;;;;77.20;37.70;;;;;;;1.69;67.50;98079.40;219003;1295;139273;-60
2021/12/29 11:23:55;;;;;;;72.20;38.10;;;;;;;1.73;67.50;98077.84;218450;1294;139482;-63
2021/12/29 11:29:12;;;;;;;68.20;36.50;;;;;;;1.76;67.56;98076.46;219420;1293;139530;-58
2021/12/29 11:34:26;;;;;;;65.60;37.10;;;;;;;1.83;67.72;98077.59;219244;1293;139317;-59
2021/12/29 11:39:31;;;;;;;66.00;36.20;;;;;;;1.86;67.71;98080.04;218547;1294;140700;-59
2021/12/29 11:44:35;;;;;;;73.20;38.30;;;;;;;1.87;67.61;98091.38;218835;1293;138768;-58
2021/12/29 11:49:38;;;;;;;69.40;38.70;;;;;;;1.94;67.78;98093.87;218724;1294;139648;-60
2021/12/29 11:55:06;;;;;;;66.40;37.30;;;;;;;2.08;67.81;98101.32;218946;1293;139636;-63
2021/12/29 12:00:20;;;;;;;69.20;38.10;;;;;;;2.17;67.68;98093.75;218550;1296;139180;-61
2021/12/29 12:05:35;;;;;;;65.10;36.90;;;;;;;2.25;67.73;98088.70;218622;1293;139607;-66
2021/12/29 12:10:40;;;;;;;67.90;37.10;;;;;;;2.32;67.82;98092.08;218835;1293;139443;-59
2021/12/29 12:15:43;;;;;;;68.10;36.70;;;;;;;2.37;67.56;98094.14;218450;1296;140354;-63
2021/12/29 12:20:50;;;;;;;290.90;152.10;;;;;;;2.39;67.75;98094.91;219421;1293;140385;-60
2021/12/29 12:26:09;;;;;;;77.70;41.40;;;;;;;2.52;67.89;98100.44;218455;1295;139985;-61
2021/12/29 12:31:28;;;;;;;67.30;37.50;;;;;;;2.53;67.68;98107.23;219502;1293;138506;-63
2021/12/29 12:36:33;;;;;;;65.50;36.40;;;;;;;2.54;67.57;98112.64;218619;1293;139201;-60
2021/12/29 12:41:39;;;;;;;66.50;37.10;;;;;;;2.50;67.55;98119.28;218849;1293;139789;-59
2021/12/29 12:46:45;;;;;;;70.00;37.40;;;;;;;2.46;67.50;98128.02;218993;1294;139313;-64
2021/12/29 12:52:04;;;;;;;66.60;37.20;;;;;;;2.46;67.58;98134.19;219188;1293;138946;-65
2021/12/29 12:57:07;;;;;;;69.20;37.40;;;;;;;2.46;67.60;98145.90;218898;1293;138952;-63
2021/12/29 13:02:18;;;;;;;74.80;38.60;;;;;;;2.54;67.70;98148.88;219748;1293;140351;-59
2021/12/29 13:07:23;;;;;;;77.30;39.20;;;;;;;2.63;67.83;98161.79;218993;1293;139181;-63
2021/12/29 13:12:29;;;;;;;77.30;42.30;;;;;;;2.70;67.74;98165.48;218829;1293;139898;-64
2021/12/29 13:17:32;;;;;;;76.80;41.90;;;;;;;2.72;67.66;98173.30;219147;1294;139042;-64
2021/12/29 13:22:36;;;;;;;78.20;42.20;;;;;;;2.74;67.73;98179.53;218643;1293;138767;-55
2021/12/29 13:27:43;;;;;;;82.70;43.00;;;;;;;2.75;67.57;98178.77;219008;1294;139125;-60
2021/12/29 13:32:47;;;;;;;82.00;44.90;;;;;;;2.74;67.59;98184.04;219162;1293;138709;-62
2021/12/29 13:37:52;;;;;;;80.80;43.90;;;;;;;2.74;67.56;98185.29;218510;1294;139098;-59
2021/12/29 13:42:55;;;;;;;345.10;178.10;;;;;;;2.74;67.79;98186.71;218954;1293;139345;-62
2021/12/29 13:47:58;;;;;;;94.60;48.50;;;;;;;2.83;67.79;98199.75;218598;1294;139226;-60
2021/12/29 13:53:05;;;;;;;78.80;41.90;;;;;;;2.82;67.70;98198.42;219401;1294;139427;-62
2021/12/29 13:58:14;;;;;;;83.10;43.10;;;;;;;2.78;67.49;98201.58;218797;1294;139515;-61
2021/12/29 14:03:17;;;;;;;80.10;41.50;;;;;;;2.74;67.55;98207.36;218883;1294;138953;-57
2021/12/29 14:08:21;;;;;;;82.50;42.20;;;;;;;2.72;67.65;98211.48;218624;1294;139357;-57
2021/12/29 14:13:25;;;;;;;83.60;40.90;;;;;;;2.77;67.73;98208.45;219849;1293;139364;-57
2021/12/29 14:18:28;;;;;;;79.00;41.00;;;;;;;2.82;67.68;98213.66;218824;1293;139701;-61
2021/12/29 14:23:32;;;;;;;78.00;41.20;;;;;;;2.89;67.76;98218.59;218822;1292;139295;-57
2021/12/29 14:28:36;;;;;;;70.30;40.00;;;;;;;2.96;67.71;98220.40;218609;1294;139588;-62
2021/12/29 14:33:41;;;;;;;69.60;38.10;;;;;;;2.95;67.66;98229.55;218393;1294;138726;-60
2021/12/29 14:38:45;;;;;;;74.50;40.80;;;;;;;2.92;67.75;98238.63;219317;1293;139211;-58
2021/12/29 14:43:57;;;;;;;74.00;41.70;;;;;;;2.82;67.55;98243.60;218785;1294;139277;-56
2021/12/29 14:49:03;;;;;;;71.70;41.10;;;;;;;2.72;67.42;98252.27;218704;1294;139392;-59
2021/12/29 14:54:11;;;;;;;89.00;44.70;;;;;;;2.57;67.42;98262.52;219216;1294;139185;-62
2021/12/29 14:59:15;;;;;;;82.90;42.20;;;;;;;2.48;67.50;98266.27;218841;1294;139888;-60
2021/12/29 15:04:27;;;;;;;79.10;42.60;;;;;;;2.44;67.60;98264.12;219327;1293;141916;-61
2021/12/29 15:09:30;;;;;;;74.80;43.60;;;;;;;2.48;67.76;98273.09;218550;1294;139216;-59
2021/12/29 15:14:33;;;;;;;78.20;45.20;;;;;;;2.52;67.96;98284.83;218741;1294;138394;-62
2021/12/29 15:19:38;;;;;;;73.90;42.30;;;;;;;2.51;67.87;98290.64;218493;1293;139480;-61
2021/12/29 15:24:42;;;;;;;79.00;44.60;;;;;;;2.37;67.55;98303.27;219016;1293;141693;-61
2021/12/29 15:29:45;;;;;;;297.20;154.70;;;;;;;2.25;67.95;98311.67;218964;1293;139202;-65
2021/12/29 15:34:51;;;;;;;88.70;47.00;;;;;;;2.33;68.35;98311.69;218275;1291;139106;-62
2021/12/29 15:39:54;;;;;;;81.80;42.80;;;;;;;2.33;68.18;98314.14;219509;1293;139355;-61
2021/12/29 15:44:57;;;;;;;79.30;42.50;;;;;;;2.29;68.12;98324.09;218727;1293;142346;-59
2021/12/29 15:50:01;;;;;;;82.30;47.80;;;;;;;2.38;68.57;98328.98;218389;1294;139538;-62
2021/12/29 15:55:05;;;;;;;70.30;39.20;;;;;;;2.57;68.70;98335.21;218882;1294;140595;-60
2021/12/29 16:00:43;;;;;;;76.40;43.20;;;;;;;2.66;68.31;98337.98;206686;1351;636836;-62
2021/12/29 16:05:46;;;;;;;77.80;42.70;;;;;;;2.65;68.33;98343.29;210126;1329;139905;-60
2021/12/29 16:10:49;;;;;;;67.60;39.40;;;;;;;2.63;68.30;98344.93;209803;1333;138147;-59
2021/12/29 16:15:52;;;;;;;74.40;41.60;;;;;;;2.56;68.22;98348.19;211106;1324;138777;-59
2021/12/29 16:20:56;;;;;;;71.40;41.70;;;;;;;2.52;68.34;98348.36;211147;1322;139201;-64
2021/12/29 16:25:59;;;;;;;131.30;72.10;;;;;;;2.46;68.42;98358.60;210992;1319;138441;-59
2021/12/29 16:31:07;;;;;;;77.30;40.20;;;;;;;2.57;68.85;98363.39;211072;1319;140129;-59
2021/12/29 16:36:10;;;;;;;72.10;42.20;;;;;;;2.61;68.50;98362.88;211091;1319;139321;-63
2021/12/29 16:41:13;;;;;;;79.90;45.20;;;;;;;2.69;68.83;98369.57;210899;1326;138704;-60
2021/12/29 16:46:17;;;;;;;77.30;43.70;;;;;;;2.82;68.92;98371.85;210851;1319;138861;-64
2021/12/29 16:51:21;;;;;;;76.70;44.90;;;;;;;2.89;68.63;98381.02;210736;1320;137902;-58
2021/12/29 16:56:26;;;;;;;85.50;45.90;;;;;;;2.91;68.58;98391.27;210951;1319;139928;-62
2021/12/29 17:01:29;;;;;;;;;;;;;;;2.95;68.90;98396.19;210699;1319;138428;-58
2021/12/29 17:06:33;;;;;;;85.70;46.60;;;;;;;3.05;69.06;98403.61;211009;1322;125005;-63
2021/12/29 17:11:36;;;;;;;85.60;47.00;;;;;;;3.07;68.58;98410.52;210865;1319;138169;-64
2021/12/29 17:16:44;;;;;;;79.30;45.70;;;;;;;3.10;68.65;98417.45;210926;1322;139585;-58
2021/12/29 17:21:49;;;;;;;82.60;46.80;;;;;;;3.10;68.67;98423.77;210991;1320;138406;-62
2021/12/29 17:26:52;;;;;;;77.40;44.40;;;;;;;3.11;68.69;98427.56;210831;1319;140585;-65
2021/12/29 17:31:56;;;;;;;192.50;113.60;;;;;;;3.11;68.51;98439.85;210897;1322;138149;-61
2021/12/29 17:37:00;;;;;;;80.70;43.90;;;;;;;3.26;69.07;98450.75;210796;1320;139882;-57
2021/12/29 17:42:03;;;;;;;82.20;47.10;;;;;;;3.35;68.82;98450.91;210918;1322;138834;-62
2021/12/29 17:47:07;;;;;;;84.00;45.20;;;;;;;3.40;68.68;98450.90;211190;1315;138676;-58
2021/12/29 17:52:10;;;;;;;84.80;46.80;;;;;;;3.42;68.41;98461.82;211154;1315;138861;-60
2021/12/29 17:57:13;;;;;;;82.10;47.30;;;;;;;3.45;68.43;98462.41;211503;1316;138676;-57
2021/12/29 18:02:18;;;;;;;85.10;48.20;;;;;;;3.51;68.68;98464.79;211215;1316;137806;-57
2021/12/29 18:07:21;;;;;;;84.50;47.80;;;;;;;3.49;68.44;98478.21;211215;1316;139865;-60
2021/12/29 18:12:24;;;;;;;97.40;53.10;;;;;;;3.39;68.08;98480.39;211183;1316;138953;-63
2021/12/29 18:17:28;;;;;;;103.20;54.20;;;;;;;3.27;68.05;98476.70;211158;1317;138181;-59
2021/12/29 18:22:31;;;;;;;97.10;53.80;;;;;;;3.16;67.96;98484.48;211102;1319;138851;-60
2021/12/29 18:27:35;;;;;;;97.10;53.10;;;;;;;3.08;68.08;98484.63;211219;1319;139406;-61
2021/12/29 18:32:38;;;;;;;83.40;48.80;;;;;;;3.04;68.35;98490.91;211358;1316;138911;-59
2021/12/29 18:37:45;;;;;;;93.40;48.70;;;;;;;3.09;68.79;98499.15;211324;1316;138903;-57
2021/12/29 18:42:49;;;;;;;110.70;59.70;;;;;;;3.18;68.95;98496.34;211319;1316;139085;-61
2021/12/29 18:47:52;;;;;;;88.10;50.80;;;;;;;3.53;69.82;98500.49;211299;1316;139091;-63
2021/12/29 18:52:56;;;;;;;97.60;54.50;;;;;;;3.65;68.98;98497.01;211407;1315;139115;-60
2021/12/29 18:57:59;;;;;;;90.60;50.90;;;;;;;3.55;68.38;98506.17;211587;1313;138551;-60
2021/12/29 19:03:02;;;;;;;87.30;49.50;;;;;;;3.44;68.21;98510.67;211118;1316;139161;-59
2021/12/29 19:08:06;;;;;;;186.50;118.10;;;;;;;3.33;68.27;98515.36;211344;1315;139344;-59
2021/12/29 19:13:10;;;;;;;89.20;51.00;;;;;;;3.33;68.69;98518.15;211412;1315;139618;-62
2021/12/29 19:18:14;;;;;;;92.40;51.80;;;;;;;3.28;68.56;98511.67;211659;1313;138744;-59
2021/12/29 19:23:17;;;;;;;92.70;50.30;;;;;;;3.19;68.32;98519.94;211500;1313;140351;-60
2021/12/29 19:28:21;;;;;;;90.00;50.30;;;;;;;3.10;68.42;98526.79;211524;1313;140681;-64
2021/12/29 19:33:25;;;;;;;98.40;54.20;;;;;;;3.02;68.37;98529.93;211518;1314;137933;-61
2021/12/29 19:38:28;;;;;;;85.10;49.60;;;;;;;2.97;68.76;98529.23;211255;1319;139003;-55
2021/12/29 19:43:31;;;;;;;97.30;53.30;;;;;;;3.01;68.75;98529.61;211245;1316;139218;-57
2021/12/29 19:49:07;;;;;;;;;;;;;;;;;;;;;
2021/12/29 19:54:30;;;;;;;95.50;52.90;;;;;;;3.08;68.94;98532.48;210720;1315;138164;-59
2021/12/29 19:59:33;;;;;;;99.10;56.00;;;;;;;3.11;69.27;98532.36;211293;1315;139123;-64
2021/12/29 20:04:36;;;;;;;114.80;62.90;;;;;;;3.41;70.33;98537.10;211421;1315;138527;-62
2021/12/29 20:09:40;;;;;;;107.10;61.70;;;;;;;3.51;69.41;98541.11;211271;1318;140031;-59
2021/12/29 20:14:44;;;;;;;96.40;54.20;;;;;;;3.51;69.10;98548.10;211432;1316;139452;-57
2021/12/29 20:19:47;;;;;;;117.70;62.40;;;;;;;3.48;69.12;98560.99;211237;1315;140048;-63
2021/12/29 20:24:54;;;;;;;102.80;53.70;;;;;;;3.49;68.78;98564.13;211413;1316;139125;-60
2021/12/29 20:29:57;;;;;;;97.30;53.50;;;;;;;3.41;68.79;98569.52;211456;1313;140098;-62
2021/12/29 20:35:02;;;;;;;94.70;55.10;;;;;;;3.36;68.74;98570.96;211397;1313;140582;-63
2021/12/29 20:40:10;;;;;;;98.30;54.50;;;;;;;3.31;68.74;98572.60;211603;1316;138207;-58
2021/12/29 20:45:14;;;;;;;102.30;57.30;;;;;;;3.23;68.58;98571.31;211282;1315;138506;-64
2021/12/29 20:50:18;;;;;;;109.60;57.70;;;;;;;3.19;68.83;98568.86;211256;1317;138657;-62
2021/12/29 20:55:23;;;;;;;114.80;61.50;;;;;;;3.18;68.93;98559.58;211349;1316;138567;-62
2021/12/29 21:00:27;;;;;;;114.50;58.20;;;;;;;3.20;69.29;98558.14;211395;1319;138632;-58
2021/12/29 21:05:34;;;;;;;119.70;64.60;;;;;;;3.19;69.14;98559.02;211283;1316;139471;-58
2021/12/29 21:10:37;;;;;;;121.40;64.80;;;;;;;3.16;69.20;98561.25;211364;1316;140384;-62
2021/12/29 21:15:41;;;;;;;132.90;68.80;;;;;;;3.13;69.22;98562.08;211394;1315;139770;-56
2021/12/29 21:20:44;;;;;;;128.90;67.00;;;;;;;3.10;69.05;98568.70;211485;1315;139950;-59
2021/12/29 21:25:48;;;;;;;131.10;70.40;;;;;;;3.15;69.33;98562.88;211393;1316;140199;-59
2021/12/29 21:30:54;;;;;;;131.80;70.50;;;;;;;3.22;69.44;98560.34;211561;1316;139702;-59
2021/12/29 21:35:58;;;;;;;135.60;70.20;;;;;;;3.23;69.14;98558.16;211129;1319;138611;-59
2021/12/29 21:41:01;;;;;;;132.10;70.20;;;;;;;3.18;68.97;98559.59;211372;1316;140503;-59
2021/12/29 21:46:08;;;;;;;135.30;74.50;;;;;;;3.05;68.72;98566.06;211516;1315;138728;-56
2021/12/29 21:51:11;;;;;;;142.40;74.00;;;;;;;2.94;68.64;98570.36;211532;1316;138873;-62
2021/12/29 21:56:14;;;;;;;134.60;72.40;;;;;;;2.87;68.89;98568.88;211356;1315;139359;-59
2021/12/29 22:01:17;;;;;;;130.80;70.50;;;;;;;2.74;68.74;98566.04;211563;1315;139225;-58
2021/12/29 22:06:21;;;;;;;132.40;72.00;;;;;;;2.61;68.73;98568.61;211485;1316;139287;-59
2021/12/29 22:11:24;;;;;;;131.50;69.90;;;;;;;2.53;68.67;98571.56;211324;1316;138914;-55
2021/12/29 22:16:27;;;;;;;133.90;71.80;;;;;;;2.42;68.62;98569.86;211491;1316;140557;-62
2021/12/29 22:21:30;;;;;;;136.60;72.10;;;;;;;2.37;68.73;98575.48;211447;1316;209142;-54
2021/12/29 22:26:33;;;;;;;137.20;70.50;;;;;;;2.44;69.03;98572.59;211093;1316;139031;-62
2021/12/29 22:31:37;;;;;;;136.40;74.60;;;;;;;2.54;69.28;98578.70;211627;1316;138937;-62
2021/12/29 22:36:40;;;;;;;135.30;74.90;;;;;;;2.62;69.46;98578.74;211425;1316;139018;-60
2021/12/29 22:41:44;;;;;;;142.20;74.80;;;;;;;2.65;69.31;98582.34;211341;1315;138879;-61
2021/12/29 22:46:47;;;;;;;137.20;72.60;;;;;;;2.63;69.16;98590.98;211582;1313;138699;-59
2021/12/29 22:51:50;;;;;;;126.50;68.00;;;;;;;2.69;69.80;98595.13;211810;1320;138872;-65
2021/12/29 22:56:53;;;;;;;123.00;67.60;;;;;;;2.88;70.18;98600.36;211399;1315;138978;-62
2021/12/29 23:01:58;;;;;;;131.40;67.30;;;;;;;2.96;70.12;98603.24;211590;1316;139195;-58
2021/12/29 23:07:01;;;;;;;118.80;61.70;;;;;;;3.06;70.14;98598.80;211685;1316;140216;-60
2021/12/29 23:12:06;;;;;;;113.70;63.30;;;;;;;3.17;70.20;98605.21;211482;1314;138878;-62